sensor_id;sensor_type;location;lat;lon;timestamp;temperature;humidity
9383;DHT22;4731;49.708;10.816;2023-07-08T00:01:12;17.10;99.90
9383;DHT22;4731;49.708;10.816;2023-07-08T00:03:55;17.20;99.90
9383;DHT22;4731;49.708;10.816;2023-07-08T00:06:44;17.20;99.90
9383;DHT22;4731;49.708;10.816;2023-07-08T00:12:12;17.10;99.90
9383;DHT22;4731;49.708;10.816;2023-07-08T00:14:54;17.10;99.90
9383;DHT22;4731;49.708;10.816;2023-07-08T00:17:47;17.00;99.90
9383;DHT22;4731;49.708;10.816;2023-07-08T00:20:32;17.10;99.90
9383;DHT22;4731;49.708;10.816;2023-07-08T00:23:13;17.10;99.90
9383;DHT22;4731;49.708;10.816;2023-07-08T00:25:50;17.00;99.90
9383;DHT22;4731;49.708;10.816;2023-07-08T00:28:26;16.90;99.90
9383;DHT22;4731;49.708;10.816;2023-07-08T00:31:08;16.80;99.90
9383;DHT22;4731;49.708;10.816;2023-07-08T00:33:54;16.90;99.90
9383;DHT22;4731;49.708;10.816;2023-07-08T00:36:30;16.80;99.90
9383;DHT22;4731;49.708;10.816;2023-07-08T00:39:02;16.80;99.90
9383;DHT22;4731;49.708;10.816;2023-07-08T00:41:41;16.70;99.90
9383;DHT22;4731;49.708;10.816;2023-07-08T00:44:14;16.70;99.90
9383;DHT22;4731;49.708;10.816;2023-07-08T00:46:48;16.70;99.90
9383;DHT22;4731;49.708;10.816;2023-07-08T00:49:44;16.60;99.90
9383;DHT22;4731;49.708;10.816;2023-07-08T00:52:30;16.50;99.90
9383;DHT22;4731;49.708;10.816;2023-07-08T00:55:13;16.50;99.90
9383;DHT22;4731;49.708;10.816;2023-07-08T00:58:05;16.50;99.90
9383;DHT22;4731;49.708;10.816;2023-07-08T01:00:35;16.40;99.90
9383;DHT22;4731;49.708;10.816;2023-07-08T01:03:04;16.30;99.90
9383;DHT22;4731;49.708;10.816;2023-07-08T01:05:34;16.20;99.90
9383;DHT22;4731;49.708;10.816;2023-07-08T01:08:06;16.20;99.90
9383;DHT22;4731;49.708;10.816;2023-07-08T01:10:38;16.10;99.90
9383;DHT22;4731;49.708;10.816;2023-07-08T01:13:09;16.10;99.90
9383;DHT22;4731;49.708;10.816;2023-07-08T01:15:44;16.00;99.90
9383;DHT22;4731;49.708;10.816;2023-07-08T01:18:16;16.00;99.90
9383;DHT22;4731;49.708;10.816;2023-07-08T01:20:46;16.00;99.90
9383;DHT22;4731;49.708;10.816;2023-07-08T01:23:17;16.00;99.90
9383;DHT22;4731;49.708;10.816;2023-07-08T01:25:47;16.00;99.90
9383;DHT22;4731;49.708;10.816;2023-07-08T01:28:17;15.90;99.90
9383;DHT22;4731;49.708;10.816;2023-07-08T01:30:44;16.00;99.90
9383;DHT22;4731;49.708;10.816;2023-07-08T01:33:20;15.90;99.90
9383;DHT22;4731;49.708;10.816;2023-07-08T01:35:51;15.90;99.90
9383;DHT22;4731;49.708;10.816;2023-07-08T01:38:27;16.00;99.90
9383;DHT22;4731;49.708;10.816;2023-07-08T01:40:57;15.90;99.90
9383;DHT22;4731;49.708;10.816;2023-07-08T01:43:25;15.90;99.90
9383;DHT22;4731;49.708;10.816;2023-07-08T01:45:58;15.90;99.90
9383;DHT22;4731;49.708;10.816;2023-07-08T01:48:30;15.90;99.90
9383;DHT22;4731;49.708;10.816;2023-07-08T01:51:05;15.90;99.90
9383;DHT22;4731;49.708;10.816;2023-07-08T01:53:37;15.90;99.90
9383;DHT22;4731;49.708;10.816;2023-07-08T01:56:09;15.90;99.90
9383;DHT22;4731;49.708;10.816;2023-07-08T01:58:37;15.80;99.90
9383;DHT22;4731;49.708;10.816;2023-07-08T02:01:09;15.80;99.90
9383;DHT22;4731;49.708;10.816;2023-07-08T02:03:38;15.80;99.90
9383;DHT22;4731;49.708;10.816;2023-07-08T02:06:06;15.80;99.90
9383;DHT22;4731;49.708;10.816;2023-07-08T02:08:36;15.80;99.90
9383;DHT22;4731;49.708;10.816;2023-07-08T02:11:04;15.80;99.90
9383;DHT22;4731;49.708;10.816;2023-07-08T02:13:35;15.70;99.90
9383;DHT22;4731;49.708;10.816;2023-07-08T02:16:07;15.70;99.90
9383;DHT22;4731;49.708;10.816;2023-07-08T02:18:35;15.60;99.90
9383;DHT22;4731;49.708;10.816;2023-07-08T02:21:08;15.70;99.90
9383;DHT22;4731;49.708;10.816;2023-07-08T02:23:38;15.60;99.90
9383;DHT22;4731;49.708;10.816;2023-07-08T02:26:07;15.60;99.90
9383;DHT22;4731;49.708;10.816;2023-07-08T02:28:41;15.40;99.90
9383;DHT22;4731;49.708;10.816;2023-07-08T02:31:08;15.40;99.90
9383;DHT22;4731;49.708;10.816;2023-07-08T02:33:38;15.40;99.90
9383;DHT22;4731;49.708;10.816;2023-07-08T02:36:11;15.40;99.90
9383;DHT22;4731;49.708;10.816;2023-07-08T02:38:43;15.30;99.90
9383;DHT22;4731;49.708;10.816;2023-07-08T02:41:12;15.30;99.90
9383;DHT22;4731;49.708;10.816;2023-07-08T02:43:44;15.20;99.90
9383;DHT22;4731;49.708;10.816;2023-07-08T02:46:21;15.30;99.90
9383;DHT22;4731;49.708;10.816;2023-07-08T02:48:49;15.30;99.90
9383;DHT22;4731;49.708;10.816;2023-07-08T02:51:17;15.20;99.90
9383;DHT22;4731;49.708;10.816;2023-07-08T02:53:46;15.20;99.90
9383;DHT22;4731;49.708;10.816;2023-07-08T02:56:22;15.20;99.90
9383;DHT22;4731;49.708;10.816;2023-07-08T02:59:04;15.30;99.90
9383;DHT22;4731;49.708;10.816;2023-07-08T03:01:41;15.30;99.90
9383;DHT22;4731;49.708;10.816;2023-07-08T03:04:13;15.20;99.90
9383;DHT22;4731;49.708;10.816;2023-07-08T03:06:41;15.20;99.90
9383;DHT22;4731;49.708;10.816;2023-07-08T03:09:12;15.20;99.90
9383;DHT22;4731;49.708;10.816;2023-07-08T03:11:43;15.10;99.90
9383;DHT22;4731;49.708;10.816;2023-07-08T03:14:15;15.00;99.90
9383;DHT22;4731;49.708;10.816;2023-07-08T03:16:43;15.00;99.90
9383;DHT22;4731;49.708;10.816;2023-07-08T03:19:12;15.00;99.90
9383;DHT22;4731;49.708;10.816;2023-07-08T03:21:41;14.90;99.90
9383;DHT22;4731;49.708;10.816;2023-07-08T03:24:11;14.90;99.90
9383;DHT22;4731;49.708;10.816;2023-07-08T03:26:45;14.80;99.90
9383;DHT22;4731;49.708;10.816;2023-07-08T03:29:15;14.80;99.90
9383;DHT22;4731;49.708;10.816;2023-07-08T03:32:00;14.90;99.90
9383;DHT22;4731;49.708;10.816;2023-07-08T03:34:35;14.80;99.90
9383;DHT22;4731;49.708;10.816;2023-07-08T03:37:02;14.90;99.90
9383;DHT22;4731;49.708;10.816;2023-07-08T03:39:31;14.90;99.90
9383;DHT22;4731;49.708;10.816;2023-07-08T03:42:05;14.90;99.90
9383;DHT22;4731;49.708;10.816;2023-07-08T03:44:37;14.90;99.90
9383;DHT22;4731;49.708;10.816;2023-07-08T03:47:19;14.90;99.90
9383;DHT22;4731;49.708;10.816;2023-07-08T03:49:48;15.00;99.90
9383;DHT22;4731;49.708;10.816;2023-07-08T03:52:19;15.00;99.90
9383;DHT22;4731;49.708;10.816;2023-07-08T03:54:51;15.00;99.90
9383;DHT22;4731;49.708;10.816;2023-07-08T03:57:30;15.10;99.90
9383;DHT22;4731;49.708;10.816;2023-07-08T04:00:02;15.10;99.90
9383;DHT22;4731;49.708;10.816;2023-07-08T04:02:34;15.10;99.90
9383;DHT22;4731;49.708;10.816;2023-07-08T04:05:11;15.10;99.90
9383;DHT22;4731;49.708;10.816;2023-07-08T04:07:40;15.10;99.90
9383;DHT22;4731;49.708;10.816;2023-07-08T04:10:12;15.10;99.90
9383;DHT22;4731;49.708;10.816;2023-07-08T04:12:48;15.10;99.90
9383;DHT22;4731;49.708;10.816;2023-07-08T04:15:19;15.20;99.90
9383;DHT22;4731;49.708;10.816;2023-07-08T04:17:56;15.20;99.90
9383;DHT22;4731;49.708;10.816;2023-07-08T04:20:25;15.30;99.90
9383;DHT22;4731;49.708;10.816;2023-07-08T04:22:53;15.30;99.90
9383;DHT22;4731;49.708;10.816;2023-07-08T04:25:23;15.40;99.90
9383;DHT22;4731;49.708;10.816;2023-07-08T04:27:53;15.50;99.90
9383;DHT22;4731;49.708;10.816;2023-07-08T04:30:27;15.60;99.90
9383;DHT22;4731;49.708;10.816;2023-07-08T04:32:59;15.70;99.90
9383;DHT22;4731;49.708;10.816;2023-07-08T04:35:26;15.80;99.90
9383;DHT22;4731;49.708;10.816;2023-07-08T04:37:59;15.90;99.90
9383;DHT22;4731;49.708;10.816;2023-07-08T04:40:28;16.00;99.90
9383;DHT22;4731;49.708;10.816;2023-07-08T04:43:01;16.20;99.90
9383;DHT22;4731;49.708;10.816;2023-07-08T04:45:33;16.30;99.90
9383;DHT22;4731;49.708;10.816;2023-07-08T04:48:03;16.50;99.90
9383;DHT22;4731;49.708;10.816;2023-07-08T04:50:39;16.60;99.90
9383;DHT22;4731;49.708;10.816;2023-07-08T04:53:07;16.70;99.90
9383;DHT22;4731;49.708;10.816;2023-07-08T04:55:35;16.90;99.90
9383;DHT22;4731;49.708;10.816;2023-07-08T04:58:07;17.00;99.90
9383;DHT22;4731;49.708;10.816;2023-07-08T05:00:45;16.90;99.90
9383;DHT22;4731;49.708;10.816;2023-07-08T05:03:13;16.80;99.90
9383;DHT22;4731;49.708;10.816;2023-07-08T05:05:40;16.60;99.90
9383;DHT22;4731;49.708;10.816;2023-07-08T05:08:12;16.70;99.90
9383;DHT22;4731;49.708;10.816;2023-07-08T05:10:39;16.80;99.90
9383;DHT22;4731;49.708;10.816;2023-07-08T05:13:08;16.80;99.90
9383;DHT22;4731;49.708;10.816;2023-07-08T05:15:39;17.00;99.90
9383;DHT22;4731;49.708;10.816;2023-07-08T05:18:07;17.20;99.90
9383;DHT22;4731;49.708;10.816;2023-07-08T05:20:38;17.50;99.90
9383;DHT22;4731;49.708;10.816;2023-07-08T05:23:18;17.80;99.90
9383;DHT22;4731;49.708;10.816;2023-07-08T05:25:46;18.00;99.90
9383;DHT22;4731;49.708;10.816;2023-07-08T05:28:14;18.20;99.90
9383;DHT22;4731;49.708;10.816;2023-07-08T05:30:43;18.30;99.90
9383;DHT22;4731;49.708;10.816;2023-07-08T05:33:10;18.20;99.90
9383;DHT22;4731;49.708;10.816;2023-07-08T05:35:42;18.30;99.90
9383;DHT22;4731;49.708;10.816;2023-07-08T05:38:11;18.70;99.90
9383;DHT22;4731;49.708;10.816;2023-07-08T05:40:39;18.90;99.90
9383;DHT22;4731;49.708;10.816;2023-07-08T05:43:11;19.20;99.90
9383;DHT22;4731;49.708;10.816;2023-07-08T05:45:58;19.50;99.90
9383;DHT22;4731;49.708;10.816;2023-07-08T05:48:31;19.70;99.90
9383;DHT22;4731;49.708;10.816;2023-07-08T05:51:02;19.80;99.90
9383;DHT22;4731;49.708;10.816;2023-07-08T05:53:36;19.80;99.90
9383;DHT22;4731;49.708;10.816;2023-07-08T05:56:12;20.10;99.90
9383;DHT22;4731;49.708;10.816;2023-07-08T05:58:46;20.40;99.90
9383;DHT22;4731;49.708;10.816;2023-07-08T06:01:33;20.70;99.90
9383;DHT22;4731;49.708;10.816;2023-07-08T06:04:06;21.00;99.90
9383;DHT22;4731;49.708;10.816;2023-07-08T06:06:39;21.20;99.90
9383;DHT22;4731;49.708;10.816;2023-07-08T06:09:10;21.10;99.90
9383;DHT22;4731;49.708;10.816;2023-07-08T06:11:42;21.20;99.90
9383;DHT22;4731;49.708;10.816;2023-07-08T06:14:16;21.50;99.90
9383;DHT22;4731;49.708;10.816;2023-07-08T06:17:08;21.90;99.90
9383;DHT22;4731;49.708;10.816;2023-07-08T06:19:43;21.90;99.90
9383;DHT22;4731;49.708;10.816;2023-07-08T06:22:20;22.00;99.90
9383;DHT22;4731;49.708;10.816;2023-07-08T06:24:50;21.90;99.90
9383;DHT22;4731;49.708;10.816;2023-07-08T06:27:20;22.10;99.90
9383;DHT22;4731;49.708;10.816;2023-07-08T06:29:53;22.40;99.90
9383;DHT22;4731;49.708;10.816;2023-07-08T06:32:25;22.50;99.90
9383;DHT22;4731;49.708;10.816;2023-07-08T06:35:08;22.60;99.90
9383;DHT22;4731;49.708;10.816;2023-07-08T06:37:40;22.30;99.90
9383;DHT22;4731;49.708;10.816;2023-07-08T06:40:13;22.60;99.90
9383;DHT22;4731;49.708;10.816;2023-07-08T06:42:50;22.40;99.90
9383;DHT22;4731;49.708;10.816;2023-07-08T06:45:25;22.60;99.90
9383;DHT22;4731;49.708;10.816;2023-07-08T06:47:56;22.70;99.90
9383;DHT22;4731;49.708;10.816;2023-07-08T06:50:30;22.70;99.90
9383;DHT22;4731;49.708;10.816;2023-07-08T06:53:00;22.60;99.90
9383;DHT22;4731;49.708;10.816;2023-07-08T06:55:39;22.90;99.90
9383;DHT22;4731;49.708;10.816;2023-07-08T06:58:09;23.00;99.90
9383;DHT22;4731;49.708;10.816;2023-07-08T07:00:36;23.50;99.90
9383;DHT22;4731;49.708;10.816;2023-07-08T07:03:05;23.40;99.90
9383;DHT22;4731;49.708;10.816;2023-07-08T07:05:33;23.60;99.90
9383;DHT22;4731;49.708;10.816;2023-07-08T07:08:04;23.50;99.90
9383;DHT22;4731;49.708;10.816;2023-07-08T07:10:47;23.40;99.90
9383;DHT22;4731;49.708;10.816;2023-07-08T07:13:18;23.90;99.90
9383;DHT22;4731;49.708;10.816;2023-07-08T07:15:49;24.20;99.90
9383;DHT22;4731;49.708;10.816;2023-07-08T07:18:28;24.30;99.90
9383;DHT22;4731;49.708;10.816;2023-07-08T07:21:00;24.50;99.90
9383;DHT22;4731;49.708;10.816;2023-07-08T07:23:42;24.50;99.90
9383;DHT22;4731;49.708;10.816;2023-07-08T07:26:36;25.00;99.90
9383;DHT22;4731;49.708;10.816;2023-07-08T07:29:23;25.40;99.90
9383;DHT22;4731;49.708;10.816;2023-07-08T07:31:51;25.30;99.90
9383;DHT22;4731;49.708;10.816;2023-07-08T07:34:22;25.60;99.90
9383;DHT22;4731;49.708;10.816;2023-07-08T07:36:49;25.70;99.90
9383;DHT22;4731;49.708;10.816;2023-07-08T07:39:17;25.50;99.90
9383;DHT22;4731;49.708;10.816;2023-07-08T07:41:44;25.70;99.90
9383;DHT22;4731;49.708;10.816;2023-07-08T07:44:12;25.80;99.90
9383;DHT22;4731;49.708;10.816;2023-07-08T07:46:44;26.20;99.90
9383;DHT22;4731;49.708;10.816;2023-07-08T07:49:13;26.40;99.90
9383;DHT22;4731;49.708;10.816;2023-07-08T07:51:42;26.40;99.90
9383;DHT22;4731;49.708;10.816;2023-07-08T07:54:10;26.70;99.90
9383;DHT22;4731;49.708;10.816;2023-07-08T07:56:38;26.30;99.90
9383;DHT22;4731;49.708;10.816;2023-07-08T07:59:10;26.60;99.90
9383;DHT22;4731;49.708;10.816;2023-07-08T08:01:46;26.80;99.90
9383;DHT22;4731;49.708;10.816;2023-07-08T08:04:18;26.90;99.90
9383;DHT22;4731;49.708;10.816;2023-07-08T08:06:53;26.80;99.90
9383;DHT22;4731;49.708;10.816;2023-07-08T08:09:20;27.10;99.90
9383;DHT22;4731;49.708;10.816;2023-07-08T08:11:52;27.20;99.90
9383;DHT22;4731;49.708;10.816;2023-07-08T08:14:26;27.00;99.90
9383;DHT22;4731;49.708;10.816;2023-07-08T08:17:03;26.90;99.90
9383;DHT22;4731;49.708;10.816;2023-07-08T08:19:34;27.30;99.90
9383;DHT22;4731;49.708;10.816;2023-07-08T08:22:17;27.50;99.90
9383;DHT22;4731;49.708;10.816;2023-07-08T08:24:48;27.70;99.90
9383;DHT22;4731;49.708;10.816;2023-07-08T08:27:16;27.80;99.90
9383;DHT22;4731;49.708;10.816;2023-07-08T08:29:44;28.10;99.90
9383;DHT22;4731;49.708;10.816;2023-07-08T08:32:11;27.70;99.90
9383;DHT22;4731;49.708;10.816;2023-07-08T08:34:50;27.70;99.90
9383;DHT22;4731;49.708;10.816;2023-07-08T08:37:22;27.70;99.90
9383;DHT22;4731;49.708;10.816;2023-07-08T08:39:52;27.80;99.90
9383;DHT22;4731;49.708;10.816;2023-07-08T08:42:40;28.20;99.90
9383;DHT22;4731;49.708;10.816;2023-07-08T08:45:15;28.20;99.90
9383;DHT22;4731;49.708;10.816;2023-07-08T08:47:51;28.40;99.90
9383;DHT22;4731;49.708;10.816;2023-07-08T08:50:36;28.20;99.90
9383;DHT22;4731;49.708;10.816;2023-07-08T08:53:13;28.30;99.90
9383;DHT22;4731;49.708;10.816;2023-07-08T08:55:41;28.60;99.90
9383;DHT22;4731;49.708;10.816;2023-07-08T08:58:22;28.80;99.90
9383;DHT22;4731;49.708;10.816;2023-07-08T09:01:03;28.50;99.90
9383;DHT22;4731;49.708;10.816;2023-07-08T09:03:48;28.90;99.90
9383;DHT22;4731;49.708;10.816;2023-07-08T09:06:26;29.40;99.90
9383;DHT22;4731;49.708;10.816;2023-07-08T09:09:00;28.90;99.90
9383;DHT22;4731;49.708;10.816;2023-07-08T09:11:45;28.80;99.90
9383;DHT22;4731;49.708;10.816;2023-07-08T09:14:22;29.00;99.90
9383;DHT22;4731;49.708;10.816;2023-07-08T09:16:57;29.20;99.90
9383;DHT22;4731;49.708;10.816;2023-07-08T09:19:38;29.50;99.90
9383;DHT22;4731;49.708;10.816;2023-07-08T09:22:17;29.70;96.20
9383;DHT22;4731;49.708;10.816;2023-07-08T09:24:58;29.60;96.00
9383;DHT22;4731;49.708;10.816;2023-07-08T09:27:32;29.90;94.70
9383;DHT22;4731;49.708;10.816;2023-07-08T09:30:16;29.60;92.70
9383;DHT22;4731;49.708;10.816;2023-07-08T09:32:46;30.00;92.90
9383;DHT22;4731;49.708;10.816;2023-07-08T09:35:18;29.60;92.00
9383;DHT22;4731;49.708;10.816;2023-07-08T09:37:53;30.10;91.30
9383;DHT22;4731;49.708;10.816;2023-07-08T09:40:30;29.60;91.40
9383;DHT22;4731;49.708;10.816;2023-07-08T09:43:01;30.00;92.00
9383;DHT22;4731;49.708;10.816;2023-07-08T09:45:40;30.10;92.10
9383;DHT22;4731;49.708;10.816;2023-07-08T09:48:23;30.80;90.80
9383;DHT22;4731;49.708;10.816;2023-07-08T09:50:52;31.10;89.30
9383;DHT22;4731;49.708;10.816;2023-07-08T09:53:20;31.00;84.90
9383;DHT22;4731;49.708;10.816;2023-07-08T09:55:58;31.00;83.30
9383;DHT22;4731;49.708;10.816;2023-07-08T09:58:37;30.70;83.90
9383;DHT22;4731;49.708;10.816;2023-07-08T10:01:10;31.20;83.40
9383;DHT22;4731;49.708;10.816;2023-07-08T10:03:39;31.70;81.20
9383;DHT22;4731;49.708;10.816;2023-07-08T10:06:16;30.90;81.10
9383;DHT22;4731;49.708;10.816;2023-07-08T10:08:46;30.70;81.50
9383;DHT22;4731;49.708;10.816;2023-07-08T10:11:29;31.00;83.40
9383;DHT22;4731;49.708;10.816;2023-07-08T10:14:16;31.00;83.30
9383;DHT22;4731;49.708;10.816;2023-07-08T10:19:38;31.10;79.60
9383;DHT22;4731;49.708;10.816;2023-07-08T10:22:21;31.20;78.30
9383;DHT22;4731;49.708;10.816;2023-07-08T10:25:02;31.20;77.90
9383;DHT22;4731;49.708;10.816;2023-07-08T10:27:36;31.50;76.80
9383;DHT22;4731;49.708;10.816;2023-07-08T10:30:17;31.50;78.40
9383;DHT22;4731;49.708;10.816;2023-07-08T10:32:57;31.60;78.80
9383;DHT22;4731;49.708;10.816;2023-07-08T10:35:30;31.90;75.80
9383;DHT22;4731;49.708;10.816;2023-07-08T10:38:16;32.30;78.70
9383;DHT22;4731;49.708;10.816;2023-07-08T10:40:48;32.70;78.20
9383;DHT22;4731;49.708;10.816;2023-07-08T10:43:27;33.10;77.30
9383;DHT22;4731;49.708;10.816;2023-07-08T10:46:06;33.30;75.80
9383;DHT22;4731;49.708;10.816;2023-07-08T10:49:06;32.90;76.00
9383;DHT22;4731;49.708;10.816;2023-07-08T10:51:40;32.20;73.30
9383;DHT22;4731;49.708;10.816;2023-07-08T10:54:28;32.20;75.00
9383;DHT22;4731;49.708;10.816;2023-07-08T10:57:06;32.00;74.10
9383;DHT22;4731;49.708;10.816;2023-07-08T10:59:47;31.90;76.10
9383;DHT22;4731;49.708;10.816;2023-07-08T11:02:49;32.20;75.70
9383;DHT22;4731;49.708;10.816;2023-07-08T11:05:28;32.80;76.10
9383;DHT22;4731;49.708;10.816;2023-07-08T11:08:03;31.90;73.80
9383;DHT22;4731;49.708;10.816;2023-07-08T11:10:36;32.90;77.00
9383;DHT22;4731;49.708;10.816;2023-07-08T11:13:09;32.40;74.50
9383;DHT22;4731;49.708;10.816;2023-07-08T11:15:46;32.60;73.70
9383;DHT22;4731;49.708;10.816;2023-07-08T11:18:19;32.10;73.50
9383;DHT22;4731;49.708;10.816;2023-07-08T11:20:54;32.40;73.40
9383;DHT22;4731;49.708;10.816;2023-07-08T11:23:26;32.70;70.60
9383;DHT22;4731;49.708;10.816;2023-07-08T11:26:08;32.60;70.40
9383;DHT22;4731;49.708;10.816;2023-07-08T11:28:37;32.60;72.70
9383;DHT22;4731;49.708;10.816;2023-07-08T11:31:11;32.10;70.40
9383;DHT22;4731;49.708;10.816;2023-07-08T11:38:33;32.00;70.80
9383;DHT22;4731;49.708;10.816;2023-07-08T11:41:03;32.40;71.80
9383;DHT22;4731;49.708;10.816;2023-07-08T11:43:36;32.70;69.90
9383;DHT22;4731;49.708;10.816;2023-07-08T11:46:06;32.70;68.50
9383;DHT22;4731;49.708;10.816;2023-07-08T11:48:39;32.80;69.00
9383;DHT22;4731;49.708;10.816;2023-07-08T11:51:09;33.40;69.70
9383;DHT22;4731;49.708;10.816;2023-07-08T11:53:38;33.70;68.50
9383;DHT22;4731;49.708;10.816;2023-07-08T11:56:24;33.90;69.20
9383;DHT22;4731;49.708;10.816;2023-07-08T11:59:08;34.40;69.00
9383;DHT22;4731;49.708;10.816;2023-07-08T12:01:39;34.30;69.00
9383;DHT22;4731;49.708;10.816;2023-07-08T12:04:24;34.50;68.70
9383;DHT22;4731;49.708;10.816;2023-07-08T12:07:01;34.40;68.00
9383;DHT22;4731;49.708;10.816;2023-07-08T12:09:34;34.60;70.70
9383;DHT22;4731;49.708;10.816;2023-07-08T12:12:05;34.80;66.00
9383;DHT22;4731;49.708;10.816;2023-07-08T12:14:35;34.80;66.90
9383;DHT22;4731;49.708;10.816;2023-07-08T12:19:31;33.70;65.70
9383;DHT22;4731;49.708;10.816;2023-07-08T12:24:26;33.10;66.30
9383;DHT22;4731;49.708;10.816;2023-07-08T12:26:55;32.90;68.00
9383;DHT22;4731;49.708;10.816;2023-07-08T12:29:22;32.70;68.40
9383;DHT22;4731;49.708;10.816;2023-07-08T12:31:49;32.80;68.50
9383;DHT22;4731;49.708;10.816;2023-07-08T12:34:16;33.30;68.70
9383;DHT22;4731;49.708;10.816;2023-07-08T12:36:45;33.70;67.70
9383;DHT22;4731;49.708;10.816;2023-07-08T12:39:15;33.90;67.60
9383;DHT22;4731;49.708;10.816;2023-07-08T12:41:43;33.90;66.90
9383;DHT22;4731;49.708;10.816;2023-07-08T12:44:16;34.10;67.40
9383;DHT22;4731;49.708;10.816;2023-07-08T12:46:45;34.30;66.50
9383;DHT22;4731;49.708;10.816;2023-07-08T12:49:14;34.50;66.40
9383;DHT22;4731;49.708;10.816;2023-07-08T12:51:45;34.60;64.70
9383;DHT22;4731;49.708;10.816;2023-07-08T12:54:13;34.30;65.10
9383;DHT22;4731;49.708;10.816;2023-07-08T12:56:44;34.40;63.70
9383;DHT22;4731;49.708;10.816;2023-07-08T12:59:15;34.30;64.60
9383;DHT22;4731;49.708;10.816;2023-07-08T13:01:47;34.60;64.10
9383;DHT22;4731;49.708;10.816;2023-07-08T13:04:17;34.20;64.70
9383;DHT22;4731;49.708;10.816;2023-07-08T13:06:47;34.00;64.80
9383;DHT22;4731;49.708;10.816;2023-07-08T13:09:29;34.10;64.20
9383;DHT22;4731;49.708;10.816;2023-07-08T13:12:01;34.30;64.90
9383;DHT22;4731;49.708;10.816;2023-07-08T13:16:57;34.60;64.20
9383;DHT22;4731;49.708;10.816;2023-07-08T13:24:21;33.90;62.50
9383;DHT22;4731;49.708;10.816;2023-07-08T13:26:48;34.20;66.30
9383;DHT22;4731;49.708;10.816;2023-07-08T13:29:18;34.60;65.30
9383;DHT22;4731;49.708;10.816;2023-07-08T13:31:48;34.80;65.40
9383;DHT22;4731;49.708;10.816;2023-07-08T13:34:18;34.80;65.40
9383;DHT22;4731;49.708;10.816;2023-07-08T13:36:49;34.30;63.90
9383;DHT22;4731;49.708;10.816;2023-07-08T13:39:22;34.30;63.90
9383;DHT22;4731;49.708;10.816;2023-07-08T13:41:51;34.10;63.00
9383;DHT22;4731;49.708;10.816;2023-07-08T13:44:18;33.90;63.30
9383;DHT22;4731;49.708;10.816;2023-07-08T13:46:51;33.50;64.00
9383;DHT22;4731;49.708;10.816;2023-07-08T13:49:22;33.20;63.00
9383;DHT22;4731;49.708;10.816;2023-07-08T13:51:51;33.20;63.00
9383;DHT22;4731;49.708;10.816;2023-07-08T13:54:24;33.40;64.30
9383;DHT22;4731;49.708;10.816;2023-07-08T13:56:53;33.70;67.10
9383;DHT22;4731;49.708;10.816;2023-07-08T13:59:23;33.80;66.60
9383;DHT22;4731;49.708;10.816;2023-07-08T14:01:52;33.40;63.10
9383;DHT22;4731;49.708;10.816;2023-07-08T14:04:29;33.60;65.10
9383;DHT22;4731;49.708;10.816;2023-07-08T14:06:56;33.90;64.30
9383;DHT22;4731;49.708;10.816;2023-07-08T14:09:26;33.30;62.70
9383;DHT22;4731;49.708;10.816;2023-07-08T14:11:54;32.50;64.20
9383;DHT22;4731;49.708;10.816;2023-07-08T14:14:20;32.80;65.30
9383;DHT22;4731;49.708;10.816;2023-07-08T14:16:48;33.10;65.20
9383;DHT22;4731;49.708;10.816;2023-07-08T14:19:20;34.70;66.00
9383;DHT22;4731;49.708;10.816;2023-07-08T14:21:49;33.10;64.50
9383;DHT22;4731;49.708;10.816;2023-07-08T14:24:17;32.90;63.60
9383;DHT22;4731;49.708;10.816;2023-07-08T14:26:47;33.10;64.30
9383;DHT22;4731;49.708;10.816;2023-07-08T14:29:14;32.80;63.50
9383;DHT22;4731;49.708;10.816;2023-07-08T14:31:41;32.40;63.90
9383;DHT22;4731;49.708;10.816;2023-07-08T14:34:12;32.60;63.30
9383;DHT22;4731;49.708;10.816;2023-07-08T14:36:39;32.90;64.90
9383;DHT22;4731;49.708;10.816;2023-07-08T14:39:11;33.10;64.90
9383;DHT22;4731;49.708;10.816;2023-07-08T14:41:38;33.10;64.40
9383;DHT22;4731;49.708;10.816;2023-07-08T14:44:20;33.20;65.50
9383;DHT22;4731;49.708;10.816;2023-07-08T14:46:47;33.40;65.20
9383;DHT22;4731;49.708;10.816;2023-07-08T14:49:17;33.50;65.10
9383;DHT22;4731;49.708;10.816;2023-07-08T14:51:44;33.10;63.20
9383;DHT22;4731;49.708;10.816;2023-07-08T14:54:11;32.70;63.60
9383;DHT22;4731;49.708;10.816;2023-07-08T14:56:39;32.60;64.40
9383;DHT22;4731;49.708;10.816;2023-07-08T14:59:06;32.80;65.00
9383;DHT22;4731;49.708;10.816;2023-07-08T15:01:35;32.90;65.40
9383;DHT22;4731;49.708;10.816;2023-07-08T15:04:09;32.70;62.60
9383;DHT22;4731;49.708;10.816;2023-07-08T15:06:36;32.70;64.50
9383;DHT22;4731;49.708;10.816;2023-07-08T15:09:03;32.70;64.00
9383;DHT22;4731;49.708;10.816;2023-07-08T15:11:31;32.60;62.50
9383;DHT22;4731;49.708;10.816;2023-07-08T15:13:57;32.70;63.70
9383;DHT22;4731;49.708;10.816;2023-07-08T15:16:24;32.80;64.50
9383;DHT22;4731;49.708;10.816;2023-07-08T15:18:53;32.80;65.00
9383;DHT22;4731;49.708;10.816;2023-07-08T15:21:19;32.80;64.90
9383;DHT22;4731;49.708;10.816;2023-07-08T15:23:46;33.10;65.00
9383;DHT22;4731;49.708;10.816;2023-07-08T15:26:13;33.10;64.10
9383;DHT22;4731;49.708;10.816;2023-07-08T15:28:43;32.60;63.20
9383;DHT22;4731;49.708;10.816;2023-07-08T15:31:14;32.50;64.30
9383;DHT22;4731;49.708;10.816;2023-07-08T15:33:42;32.50;63.70
9383;DHT22;4731;49.708;10.816;2023-07-08T15:36:11;32.60;63.20
9383;DHT22;4731;49.708;10.816;2023-07-08T15:38:40;32.80;63.60
9383;DHT22;4731;49.708;10.816;2023-07-08T15:41:12;32.60;63.80
9383;DHT22;4731;49.708;10.816;2023-07-08T15:43:42;35.30;65.40
9383;DHT22;4731;49.708;10.816;2023-07-08T15:46:09;32.40;62.90
9383;DHT22;4731;49.708;10.816;2023-07-08T15:48:36;32.50;63.00
9383;DHT22;4731;49.708;10.816;2023-07-08T15:51:03;32.50;62.20
9383;DHT22;4731;49.708;10.816;2023-07-08T15:55:58;32.50;62.80
9383;DHT22;4731;49.708;10.816;2023-07-08T15:58:28;32.50;63.50
9383;DHT22;4731;49.708;10.816;2023-07-08T16:00:58;32.50;63.90
9383;DHT22;4731;49.708;10.816;2023-07-08T16:03:28;32.20;63.20
9383;DHT22;4731;49.708;10.816;2023-07-08T16:05:58;32.20;64.10
9383;DHT22;4731;49.708;10.816;2023-07-08T16:08:25;32.30;64.60
9383;DHT22;4731;49.708;10.816;2023-07-08T16:10:55;32.30;63.40
9383;DHT22;4731;49.708;10.816;2023-07-08T16:13:26;32.00;62.80
9383;DHT22;4731;49.708;10.816;2023-07-08T16:15:54;31.20;62.10
9383;DHT22;4731;49.708;10.816;2023-07-08T16:23:16;31.80;63.50
9383;DHT22;4731;49.708;10.816;2023-07-08T16:25:44;31.70;65.30
9383;DHT22;4731;49.708;10.816;2023-07-08T16:28:19;32.40;66.70
9383;DHT22;4731;49.708;10.816;2023-07-08T16:30:47;31.60;66.90
9383;DHT22;4731;49.708;10.816;2023-07-08T16:33:15;31.80;67.80
9383;DHT22;4731;49.708;10.816;2023-07-08T16:35:41;33.60;69.20
9383;DHT22;4731;49.708;10.816;2023-07-08T16:38:08;31.80;66.70
9383;DHT22;4731;49.708;10.816;2023-07-08T16:43:02;31.70;66.20
9383;DHT22;4731;49.708;10.816;2023-07-08T16:50:26;31.70;67.10
9383;DHT22;4731;49.708;10.816;2023-07-08T16:52:55;31.60;66.90
9383;DHT22;4731;49.708;10.816;2023-07-08T16:55:21;31.50;67.60
9383;DHT22;4731;49.708;10.816;2023-07-08T17:00:17;31.50;67.40